Time;durP1;ratioP1;P1;durP2;ratioP2;P2;SDS_P1;SDS_P2;PMS_P1;PMS_P2;Temp;Humidity;BMP_temperature;BMP_pressure;BME280_temperature;BME280_humidity;BME280_pressure;Samples;Min_cycle;Max_cycle;Signal;HPM_P1;HPM_P2
2022/08/21 00:03:43;;;;;;;5.72;1.80;;;19.50;99.90;;;;;;8411818;28;20048;-76
2022/08/21 00:07:45;;;;;;;5.18;1.90;;;19.40;99.90;;;;;;8416675;28;20036;-78
2022/08/21 00:11:48;;;;;;;6.60;2.10;;;19.40;99.90;;;;;;8418291;28;20044;-75
2022/08/21 00:15:50;;;;;;;4.80;2.00;;;19.40;99.90;;;;;;8408857;28;20051;-77
2022/08/21 00:19:54;;;;;;;4.65;1.90;;;19.40;99.90;;;;;;8408860;28;20428;-76
2022/08/21 00:23:56;;;;;;;4.55;2.00;;;19.40;99.90;;;;;;8431110;28;20119;-79
2022/08/21 00:27:58;;;;;;;6.13;1.95;;;19.40;99.90;;;;;;8430123;28;20107;-79
2022/08/21 00:32:00;;;;;;;6.70;1.90;;;19.40;99.90;;;;;;8432579;28;20071;-75
2022/08/21 00:36:05;;;;;;;4.85;1.83;;;19.30;99.90;;;;;;8427870;28;20032;-78
2022/08/21 00:40:14;;;;;;;4.15;1.73;;;19.30;99.90;;;;;;8447942;28;20040;-78
2022/08/21 00:44:17;;;;;;;4.25;1.80;;;19.30;99.90;;;;;;8424302;28;20047;-78
2022/08/21 00:48:19;;;;;;;5.38;2.08;;;19.30;99.90;;;;;;8403446;28;20048;-78
2022/08/21 00:52:28;;;;;;;5.07;1.80;;;19.30;99.90;;;;;;8370844;28;20053;-77
2022/08/21 00:56:31;;;;;;;4.05;1.92;;;19.30;99.90;;;;;;8414110;28;20041;-76
2022/08/21 01:00:38;;;;;;;6.30;2.30;;;19.10;99.90;;;;;;8405196;28;20044;-78
2022/08/21 01:04:41;;;;;;;5.38;1.92;;;19.10;99.90;;;;;;8402285;28;20059;-79
2022/08/21 01:08:45;;;;;;;4.95;1.90;;;19.00;99.90;;;;;;8423941;28;20074;-78
2022/08/21 01:12:47;;;;;;;5.22;2.05;;;18.90;99.90;;;;;;8423966;28;20474;-77
2022/08/21 01:16:53;;;;;;;4.63;2.08;;;18.80;99.90;;;;;;8415723;28;20051;-78
2022/08/21 01:21:06;;;;;;;4.22;2.00;;;18.70;99.90;;;;;;8409567;28;20262;-76
2022/08/21 01:25:10;;;;;;;4.82;1.80;;;18.70;99.90;;;;;;8422389;28;20051;-78
2022/08/21 01:29:18;;;;;;;4.22;2.13;;;18.70;99.90;;;;;;8416387;28;20410;-77
2022/08/21 01:33:23;;;;;;;4.05;2.03;;;18.70;99.90;;;;;;8412835;28;20051;-75
2022/08/21 01:37:26;;;;;;;3.90;1.88;;;18.70;99.90;;;;;;8422728;28;20041;-77
2022/08/21 01:41:28;;;;;;;4.72;2.03;;;18.60;99.90;;;;;;8418307;28;20036;-76
2022/08/21 01:45:31;;;;;;;5.32;2.15;;;18.60;99.90;;;;;;8416294;28;20428;-78
2022/08/21 01:49:33;;;;;;;4.60;2.33;;;18.50;99.90;;;;;;8422619;28;20044;-78
2022/08/21 01:53:38;;;;;;;4.43;2.22;;;18.40;99.90;;;;;;8421696;28;20040;-79
2022/08/21 01:57:40;;;;;;;4.68;2.10;;;18.40;99.90;;;;;;8413715;28;20539;-77
2022/08/21 02:01:42;;;;;;;5.18;2.10;;;18.40;99.90;;;;;;8421913;28;20066;-79
2022/08/21 02:05:44;;;;;;;4.35;2.25;;;18.40;99.90;;;;;;8421676;28;20048;-76
2022/08/21 02:09:48;;;;;;;7.68;2.22;;;18.40;99.90;;;;;;8423695;28;20051;-75
2022/08/21 02:13:50;;;;;;;5.18;2.20;;;18.40;99.90;;;;;;8414552;28;20048;-77
2022/08/21 02:17:55;;;;;;;5.60;2.30;;;18.40;99.90;;;;;;8412575;28;20410;-76
2022/08/21 02:21:57;;;;;;;3.80;2.10;;;18.40;99.90;;;;;;8421171;28;20040;-79
2022/08/21 02:26:04;;;;;;;7.07;2.13;;;18.40;99.90;;;;;;8414215;28;20040;-76
2022/08/21 02:30:07;;;;;;;4.95;2.10;;;18.40;99.90;;;;;;8419374;28;20036;-78
2022/08/21 02:34:09;;;;;;;5.00;2.13;;;18.40;99.90;;;;;;8420049;28;20044;-77
2022/08/21 02:38:16;;;;;;;5.47;2.10;;;18.40;99.90;;;;;;8420835;28;20044;-79
2022/08/21 02:42:19;;;;;;;6.15;1.77;;;18.40;99.90;;;;;;8408526;28;20044;-79
2022/08/21 02:46:22;;;;;;;3.97;2.00;;;18.30;99.90;;;;;;8419366;28;20049;-78
2022/08/21 02:50:28;;;;;;;5.60;2.22;;;18.30;99.90;;;;;;8416668;28;20129;-79
2022/08/21 02:54:30;;;;;;;5.32;2.17;;;18.20;99.90;;;;;;8413746;28;20482;-78
2022/08/21 02:58:38;;;;;;;3.33;2.00;;;18.10;99.90;;;;;;8417375;28;20041;-78
2022/08/21 03:02:40;;;;;;;4.57;2.17;;;18.10;99.90;;;;;;8416845;28;20085;-78
2022/08/21 03:06:42;;;;;;;4.10;1.88;;;18.00;99.90;;;;;;8419881;28;20054;-76
2022/08/21 03:10:47;;;;;;;7.25;2.30;;;17.90;99.90;;;;;;8419866;28;20543;-78
2022/08/21 03:14:50;;;;;;;4.68;2.17;;;17.80;99.90;;;;;;8413461;28;20036;-76
2022/08/21 03:18:53;;;;;;;6.05;2.45;;;17.70;99.90;;;;;;8417684;28;20040;-77
2022/08/21 03:22:55;;;;;;;4.35;2.05;;;17.70;99.90;;;;;;8413580;28;20040;-77
2022/08/21 03:26:57;;;;;;;6.03;2.28;;;17.80;99.90;;;;;;8420719;28;20036;-78
2022/08/21 03:31:01;;;;;;;6.63;2.20;;;17.70;99.90;;;;;;8420586;28;20040;-78
2022/08/21 03:35:04;;;;;;;6.88;2.40;;;17.80;99.90;;;;;;8419278;28;20044;-77
2022/08/21 03:39:07;;;;;;;5.22;2.20;;;17.80;99.90;;;;;;8419115;28;20052;-78
2022/08/21 03:43:09;;;;;;;5.88;2.05;;;17.80;99.90;;;;;;8418932;28;20048;-78
2022/08/21 03:47:13;;;;;;;6.43;2.17;;;17.70;99.90;;;;;;8408641;28;20056;-78
2022/08/21 03:51:15;;;;;;;6.80;2.45;;;17.60;99.90;;;;;;8412272;28;20515;-78
2022/08/21 03:55:18;;;;;;;5.03;1.90;;;17.60;99.90;;;;;;8425756;28;20359;-77
2022/08/21 03:59:20;;;;;;;4.25;2.10;;;17.50;99.90;;;;;;8424707;28;20055;-78
2022/08/21 04:03:25;;;;;;;4.65;2.30;;;17.50;99.90;;;;;;8418036;28;21187;-77
2022/08/21 04:07:27;;;;;;;5.47;2.20;;;17.40;99.90;;;;;;8415611;28;20521;-77
2022/08/21 04:11:29;;;;;;;10.45;6.35;;;17.40;99.90;;;;;;8424421;28;20048;-77
2022/08/21 04:15:32;;;;;;;11.15;4.00;;;17.40;99.90;;;;;;8420023;28;20044;-77
2022/08/21 04:19:35;;;;;;;12.65;7.18;;;17.40;99.90;;;;;;8421263;28;20423;-78
2022/08/21 04:23:38;;;;;;;11.60;5.90;;;17.40;99.90;;;;;;8425052;28;20048;-78
2022/08/21 04:27:40;;;;;;;6.18;2.80;;;17.40;99.90;;;;;;8424728;28;20474;-79
2022/08/21 04:31:43;;;;;;;7.85;2.47;;;17.30;99.90;;;;;;8405858;28;20375;-78
2022/08/21 04:35:46;;;;;;;5.50;2.05;;;17.30;99.90;;;;;;8423398;28;20067;-78
2022/08/21 04:39:48;;;;;;;6.80;2.53;;;17.30;99.90;;;;;;8422652;28;20401;-78
2022/08/21 04:43:50;;;;;;;5.63;2.20;;;17.20;99.90;;;;;;8420822;28;20044;-76
2022/08/21 04:47:55;;;;;;;6.25;2.25;;;17.20;99.90;;;;;;8417951;28;20505;-77
2022/08/21 04:51:59;;;;;;;5.78;2.38;;;17.20;99.90;;;;;;8416632;28;20422;-78
2022/08/21 04:56:08;;;;;;;6.68;2.22;;;17.20;99.90;;;;;;8424267;28;20501;-76
2022/08/21 05:00:13;;;;;;;6.53;2.35;;;17.30;99.90;;;;;;8414886;28;20045;-77
2022/08/21 05:04:19;;;;;;;5.53;2.10;;;17.30;99.90;;;;;;8406583;28;20063;-76
2022/08/21 05:08:26;;;;;;;5.85;2.13;;;17.30;99.90;;;;;;8426236;28;20361;-78
2022/08/21 05:12:28;;;;;;;5.45;1.90;;;17.30;99.90;;;;;;8420463;28;20053;-80
2022/08/21 05:16:31;;;;;;;4.47;1.83;;;17.40;99.90;;;;;;8416021;28;20040;-78
2022/08/21 05:20:34;;;;;;;4.20;1.88;;;17.40;99.90;;;;;;8406066;28;20403;-77
2022/08/21 05:24:37;;;;;;;5.03;2.20;;;17.40;99.90;;;;;;8397416;28;20055;-75
2022/08/21 05:28:39;;;;;;;5.95;2.17;;;17.30;99.90;;;;;;8406987;28;20447;-75
2022/08/21 05:32:41;;;;;;;4.25;2.00;;;17.20;99.90;;;;;;8408949;28;20047;-76
2022/08/21 05:36:44;;;;;;;3.50;2.05;;;17.10;99.90;;;;;;8410865;28;20040;-78
2022/08/21 05:40:48;;;;;;;5.80;2.53;;;17.10;99.90;;;;;;8416903;28;20036;-76
2022/08/21 05:44:50;;;;;;;5.07;2.40;;;17.20;99.90;;;;;;8409881;28;20413;-79
2022/08/21 05:48:53;;;;;;;4.38;2.22;;;17.40;99.90;;;;;;8415248;28;20044;-78
2022/08/21 05:52:55;;;;;;;9.70;2.30;;;17.50;99.90;;;;;;8392424;28;20048;-77
2022/08/21 05:56:59;;;;;;;7.43;2.10;;;18.00;99.90;;;;;;8392762;28;20048;-78
2022/08/21 06:01:03;;;;;;;5.75;2.10;;;18.70;99.90;;;;;;8380196;28;20051;-77
2022/08/21 06:05:06;;;;;;;4.78;2.55;;;18.40;99.90;;;;;;8377406;28;20052;-77
2022/08/21 06:09:08;;;;;;;5.68;2.70;;;18.10;99.90;;;;;;8393949;28;20056;-79
2022/08/21 06:13:13;;;;;;;6.30;2.58;;;17.80;99.90;;;;;;8420885;28;20051;-79
2022/08/21 06:17:15;;;;;;;5.32;2.30;;;17.70;99.90;;;;;;8392021;28;20048;-81
2022/08/21 06:21:17;;;;;;;5.25;2.45;;;17.70;99.90;;;;;;8410936;28;20540;-80
2022/08/21 06:25:19;;;;;;;5.13;2.22;;;17.70;99.90;;;;;;8400255;28;20044;-76
2022/08/21 06:29:23;;;;;;;6.78;2.50;;;17.80;99.90;;;;;;8411818;28;20052;-76
2022/08/21 06:33:26;;;;;;;6.65;2.42;;;17.90;99.90;;;;;;8419393;28;20052;-76
2022/08/21 06:37:28;;;;;;;6.85;2.60;;;18.10;99.90;;;;;;8395615;28;20044;-77
2022/08/21 06:41:31;;;;;;;6.38;2.45;;;18.10;99.90;;;;;;8378929;28;20506;-76
2022/08/21 06:45:34;;;;;;;4.93;2.50;;;18.20;99.90;;;;;;8368799;28;20052;-76
2022/08/21 06:49:36;;;;;;;6.00;2.33;;;18.20;99.90;;;;;;8401175;28;20052;-76
2022/08/21 06:53:38;;;;;;;6.05;2.65;;;18.30;99.90;;;;;;8398130;28;20085;-75
2022/08/21 06:57:40;;;;;;;5.38;2.40;;;18.40;99.90;;;;;;8410505;28;20091;-76
2022/08/21 07:01:44;;;;;;;6.47;2.50;;;18.40;99.90;;;;;;8402104;28;20040;-77
2022/08/21 07:05:46;;;;;;;7.55;2.40;;;18.50;99.90;;;;;;8413509;28;20056;-78
2022/08/21 07:09:48;;;;;;;9.10;2.90;;;18.50;99.90;;;;;;8400316;28;20409;-77
2022/08/21 07:13:52;;;;;;;7.10;2.53;;;18.70;99.90;;;;;;8411981;28;20052;-75
2022/08/21 07:17:56;;;;;;;6.10;2.35;;;18.70;99.90;;;;;;8402698;28;20494;-74
2022/08/21 07:22:02;;;;;;;7.18;2.53;;;18.80;99.90;;;;;;8407640;28;20045;-77
2022/08/21 07:26:04;;;;;;;5.15;2.05;;;18.80;99.90;;;;;;8407681;28;20482;-77
2022/08/21 07:30:08;;;;;;;7.50;2.40;;;19.00;99.90;;;;;;8419880;28;20417;-77
2022/08/21 07:34:12;;;;;;;7.35;2.40;;;19.00;99.90;;;;;;8412593;28;20040;-75
2022/08/21 07:38:14;;;;;;;5.22;2.47;;;19.10;99.90;;;;;;8401716;28;20090;-75
2022/08/21 07:42:16;;;;;;;6.70;2.45;;;19.00;99.90;;;;;;8407062;28;20051;-74
2022/08/21 07:46:20;;;;;;;5.07;2.50;;;19.10;99.90;;;;;;8408782;28;20062;-76
2022/08/21 07:50:24;;;;;;;6.72;2.40;;;19.20;99.90;;;;;;8401277;28;20049;-78
2022/08/21 07:54:26;;;;;;;5.97;2.50;;;19.40;99.90;;;;;;8402768;28;20044;-77
2022/08/21 07:58:28;;;;;;;5.90;2.58;;;19.50;99.90;;;;;;8401003;28;20045;-76
2022/08/21 08:02:31;;;;;;;7.97;2.90;;;19.60;99.90;;;;;;8400305;28;20044;-76
2022/08/21 08:06:35;;;;;;;7.97;2.75;;;19.60;99.90;;;;;;8391205;28;20494;-77
2022/08/21 08:10:38;;;;;;;6.28;2.70;;;19.60;99.90;;;;;;8395268;28;20039;-77
2022/08/21 08:14:40;;;;;;;7.18;2.95;;;19.60;99.30;;;;;;8386232;28;20056;-78
2022/08/21 08:18:44;;;;;;;8.20;2.97;;;19.80;99.40;;;;;;8387206;28;20045;-77
2022/08/21 08:22:48;;;;;;;6.15;3.22;;;19.90;98.80;;;;;;8412365;28;20055;-76
2022/08/21 08:26:50;;;;;;;7.03;3.33;;;20.00;97.40;;;;;;8394074;28;20051;-78
2022/08/21 08:30:52;;;;;;;11.07;3.35;;;20.00;96.80;;;;;;8396451;28;20047;-78
2022/08/21 08:34:54;;;;;;;7.75;3.25;;;20.10;97.60;;;;;;8394525;28;20044;-77
2022/08/21 08:38:57;;;;;;;8.65;3.22;;;20.20;97.40;;;;;;8412821;28;20509;-77
2022/08/21 08:43:00;;;;;;;14.52;7.20;;;20.30;97.80;;;;;;8381597;28;20045;-78
2022/08/21 08:47:03;;;;;;;16.02;7.68;;;20.30;97.90;;;;;;8399887;28;20048;-77
2022/08/21 08:51:11;;;;;;;7.80;3.38;;;20.40;97.50;;;;;;8413886;28;20044;-77
2022/08/21 08:55:21;;;;;;;6.85;3.33;;;20.50;97.10;;;;;;8381674;28;20048;-78
2022/08/21 08:59:28;;;;;;;8.05;3.60;;;20.50;97.70;;;;;;8414355;28;20057;-77
2022/08/21 09:03:31;;;;;;;6.68;3.25;;;20.60;97.50;;;;;;8403785;28;20060;-77
2022/08/21 09:07:41;;;;;;;8.23;3.45;;;20.70;97.30;;;;;;8383745;28;20048;-75
2022/08/21 09:11:55;;;;;;;7.03;3.47;;;20.80;97.30;;;;;;8390280;28;20041;-75
2022/08/21 09:16:09;;;;;;;6.60;3.70;;;20.90;96.50;;;;;;8393171;28;20379;-76
2022/08/21 09:20:28;;;;;;;7.57;3.58;;;21.00;96.50;;;;;;8373395;28;20044;-77
2022/08/21 09:24:36;;;;;;;7.72;3.45;;;21.10;95.70;;;;;;8389275;28;20517;-80
2022/08/21 09:31:26;;;;;;;7.43;2.97;;;21.30;93.70;;;;;;8421105;27;20410;-78
2022/08/21 09:35:29;;;;;;;6.75;3.35;;;21.30;92.60;;;;;;8260416;28;195582;-76
2022/08/21 09:42:02;;;;;;;9.05;3.38;;;21.20;91.20;;;;;;10570600;27;20357;-77
2022/08/21 09:47:05;;;;;;;9.80;3.65;;;21.40;91.50;;;;;;10529488;28;20039;-78
2022/08/21 09:52:19;;;;;;;7.68;3.50;;;21.40;92.30;;;;;;10532603;28;20060;-78
2022/08/21 10:02:48;;;;;;;7.55;3.38;;;21.60;91.40;;;;;;10517939;28;20101;-76
2022/08/21 10:07:50;;;;;;;8.05;3.55;;;21.70;90.70;;;;;;10537721;28;20044;-76
2022/08/21 10:13:04;;;;;;;8.77;3.40;;;21.80;90.80;;;;;;10543415;28;20040;-77
2022/08/21 10:18:17;;;;;;;9.07;4.00;;;21.80;90.20;;;;;;10535953;28;20055;-77
2022/08/21 10:23:40;;;;;;;9.05;4.47;;;22.00;90.80;;;;;;10549448;28;20050;-75
2022/08/21 10:28:53;;;;;;;9.40;3.65;;;22.00;88.00;;;;;;10513535;28;20044;-80
2022/08/21 10:34:24;;;;;;;8.35;3.40;;;22.10;87.40;;;;;;10508441;28;20052;-78
2022/08/21 10:39:34;;;;;;;6.50;3.58;;;22.10;86.50;;;;;;10522378;28;20078;-78
2022/08/21 10:44:50;;;;;;;6.30;3.30;;;22.20;88.50;;;;;;10527803;28;20045;-79
2022/08/21 10:50:05;;;;;;;7.03;3.30;;;22.30;86.20;;;;;;10528977;28;20572;-80
2022/08/21 10:55:13;;;;;;;36.97;20.83;;;22.40;86.00;;;;;;10502514;28;20128;-79
2022/08/21 11:00:21;;;;;;;8.68;4.32;;;22.50;86.90;;;;;;10512998;28;20049;-75
2022/08/21 11:05:31;;;;;;;6.97;3.20;;;22.60;86.20;;;;;;10506934;28;20429;-74
2022/08/21 11:10:42;;;;;;;9.98;3.47;;;22.70;83.10;;;;;;10511407;28;20724;-75
2022/08/21 11:15:55;;;;;;;7.20;3.17;;;22.70;82.40;;;;;;10525931;28;20075;-75
2022/08/21 11:21:10;;;;;;;8.40;3.50;;;22.80;82.50;;;;;;10505274;28;20052;-77
2022/08/21 11:26:19;;;;;;;6.85;3.17;;;22.80;82.20;;;;;;10516303;28;20048;-78
2022/08/21 11:31:45;;;;;;;6.70;3.08;;;23.00;83.90;;;;;;10501789;28;20410;-77
2022/08/21 11:36:58;;;;;;;6.20;2.97;;;23.10;84.00;;;;;;10506855;28;20040;-74
2022/08/21 11:42:08;;;;;;;7.00;2.50;;;23.20;80.40;;;;;;10519310;28;20045;-75
2022/08/21 11:47:19;;;;;;;5.15;2.40;;;23.20;76.70;;;;;;10516571;28;20053;-76
2022/08/21 11:52:28;;;;;;;6.95;2.63;;;23.30;74.90;;;;;;10521322;28;20044;-77
2022/08/21 11:57:36;;;;;;;8.40;2.50;;;23.50;74.70;;;;;;10525184;28;20044;-75
2022/08/21 12:02:47;;;;;;;6.03;2.40;;;23.50;70.90;;;;;;10508394;28;20040;-76
2022/08/21 12:07:49;;;;;;;6.32;3.05;;;23.70;75.50;;;;;;10514302;28;20045;-75
2022/08/21 12:12:51;;;;;;;6.68;3.22;;;23.90;74.20;;;;;;10502214;28;20052;-75
2022/08/21 12:18:00;;;;;;;7.25;2.92;;;24.00;72.90;;;;;;10500466;28;20056;-75
2022/08/21 12:23:18;;;;;;;7.65;2.70;;;24.10;67.90;;;;;;10499937;28;20047;-77
2022/08/21 12:28:25;;;;;;;5.80;2.70;;;24.20;69.30;;;;;;10507079;28;20055;-75
2022/08/21 12:33:32;;;;;;;5.75;2.65;;;24.30;70.70;;;;;;10516792;28;20055;-74
2022/08/21 12:38:44;;;;;;;5.70;2.53;;;24.40;67.50;;;;;;10547262;28;20059;-75
2022/08/21 12:43:52;;;;;;;8.05;2.85;;;24.40;67.80;;;;;;10542953;28;20042;-76
2022/08/21 12:49:03;;;;;;;5.88;2.40;;;24.50;66.10;;;;;;10542326;28;20058;-75
2022/08/21 12:54:05;;;;;;;5.93;2.60;;;24.80;68.10;;;;;;10542131;28;20043;-74
2022/08/21 12:59:13;;;;;;;5.53;2.35;;;24.80;63.50;;;;;;10542669;28;20433;-74
2022/08/21 13:04:21;;;;;;;4.78;2.50;;;24.80;59.50;;;;;;10542870;28;20048;-75
2022/08/21 13:09:28;;;;;;;6.85;2.33;;;24.90;59.60;;;;;;10543168;28;20041;-75
2022/08/21 13:14:36;;;;;;;5.03;2.53;;;25.10;60.50;;;;;;10542980;28;20105;-75
2022/08/21 13:19:39;;;;;;;5.32;2.50;;;25.20;58.50;;;;;;10543067;28;20059;-74
2022/08/21 13:24:42;;;;;;;6.20;2.38;;;25.30;61.40;;;;;;10541754;28;20496;-75
2022/08/21 13:29:44;;;;;;;6.57;2.10;;;25.60;59.20;;;;;;10541673;28;20051;-74
2022/08/21 13:34:47;;;;;;;6.55;2.40;;;25.80;58.80;;;;;;10541795;28;20453;-75
2022/08/21 13:39:53;;;;;;;6.90;2.55;;;26.00;59.50;;;;;;10541500;28;20056;-75
2022/08/21 13:44:55;;;;;;;4.93;2.17;;;26.30;60.30;;;;;;10499719;28;20119;-74
2022/08/21 13:49:58;;;;;;;5.63;2.60;;;26.50;57.90;;;;;;10494615;28;20067;-75
2022/08/21 13:55:09;;;;;;;5.13;2.88;;;26.40;57.00;;;;;;10506913;28;20055;-76
2022/08/21 14:00:16;;;;;;;5.50;2.65;;;26.60;59.00;;;;;;10494493;28;20057;-76
2022/08/21 14:05:23;;;;;;;5.63;2.20;;;26.80;58.90;;;;;;10492642;28;20414;-76
2022/08/21 14:10:27;;;;;;;4.35;2.10;;;26.90;60.90;;;;;;10492885;28;20041;-76
2022/08/21 14:15:33;;;;;;;4.50;1.98;;;27.10;58.90;;;;;;10490735;28;20040;-75
2022/08/21 14:20:38;;;;;;;4.90;2.05;;;27.00;54.70;;;;;;10492459;28;20052;-78
2022/08/21 14:25:43;;;;;;;5.07;2.22;;;27.20;57.20;;;;;;10533019;28;20070;-75
2022/08/21 14:30:45;;;;;;;5.10;2.05;;;27.40;56.30;;;;;;10514498;28;20584;-75
2022/08/21 14:35:49;;;;;;;4.03;2.05;;;27.40;54.80;;;;;;10538451;28;20484;-75
2022/08/21 14:40:55;;;;;;;4.68;2.10;;;27.70;54.20;;;;;;10538405;28;20091;-77
2022/08/21 14:45:57;;;;;;;5.40;2.20;;;27.60;55.30;;;;;;10554474;28;20046;-77
2022/08/21 14:51:01;;;;;;;4.57;2.30;;;27.70;52.40;;;;;;10524640;28;20048;-78
2022/08/21 14:56:07;;;;;;;5.80;2.00;;;27.90;54.70;;;;;;10498082;28;20049;-77
2022/08/21 15:01:11;;;;;;;7.30;3.08;;;28.10;53.90;;;;;;10517952;28;20248;-76
2022/08/21 15:06:17;;;;;;;5.90;2.75;;;28.00;52.00;;;;;;10498230;28;20418;-78
2022/08/21 15:11:21;;;;;;;4.75;2.38;;;28.30;54.80;;;;;;10500316;28;20477;-79
2022/08/21 15:16:23;;;;;;;7.07;2.50;;;28.40;53.90;;;;;;10540090;28;20059;-76
2022/08/21 15:21:27;;;;;;;5.53;2.50;;;28.30;52.50;;;;;;10502467;28;20412;-78
2022/08/21 15:26:29;;;;;;;4.75;2.10;;;28.50;54.60;;;;;;10500828;28;20458;-79
2022/08/21 15:31:31;;;;;;;5.53;2.08;;;28.60;52.70;;;;;;10509053;28;20056;-77
2022/08/21 15:36:36;;;;;;;5.68;2.72;;;28.50;51.00;;;;;;10496572;28;20406;-76
2022/08/21 15:41:38;;;;;;;4.93;2.50;;;28.50;52.70;;;;;;10503718;28;20060;-78
2022/08/21 15:46:41;;;;;;;6.45;2.25;;;28.70;51.70;;;;;;10536451;28;20044;-77
2022/08/21 15:51:45;;;;;;;5.63;2.30;;;28.60;49.70;;;;;;10505752;28;20131;-77
2022/08/21 15:56:51;;;;;;;4.53;2.33;;;28.50;50.90;;;;;;10500035;28;20733;-77
2022/08/21 16:01:53;;;;;;;6.15;2.40;;;28.80;50.70;;;;;;10494116;28;20094;-79
2022/08/21 16:06:57;;;;;;;5.50;2.20;;;28.80;49.30;;;;;;10494380;28;20056;-75
2022/08/21 16:12:00;;;;;;;4.78;2.20;;;28.70;47.90;;;;;;10509578;28;20051;-78
2022/08/21 16:17:02;;;;;;;4.13;2.17;;;28.90;48.20;;;;;;10534117;28;20584;-77
2022/08/21 16:22:05;;;;;;;4.45;2.30;;;29.10;47.50;;;;;;10500736;28;20055;-77
2022/08/21 16:27:08;;;;;;;4.15;1.88;;;29.10;49.20;;;;;;10492977;28;20052;-77
2022/08/21 16:32:11;;;;;;;4.85;1.90;;;29.10;49.10;;;;;;10525019;28;20052;-85
2022/08/21 16:37:15;;;;;;;4.10;2.03;;;29.40;48.50;;;;;;10508745;28;20044;-76
2022/08/21 16:42:23;;;;;;;11.32;7.45;;;29.30;49.00;;;;;;10494743;28;20108;-77
2022/08/21 16:47:25;;;;;;;8.07;4.82;;;29.50;49.60;;;;;;10537896;28;20056;-76
2022/08/21 16:52:29;;;;;;;4.40;2.20;;;29.60;48.70;;;;;;10539138;28;20054;-78
2022/08/21 16:57:31;;;;;;;4.65;2.15;;;29.80;48.10;;;;;;10522132;28;20052;-77
2022/08/21 17:02:38;;;;;;;4.30;1.90;;;29.60;48.60;;;;;;10495358;28;20078;-75
2022/08/21 17:07:43;;;;;;;4.85;2.00;;;29.60;49.10;;;;;;10482282;28;20513;-74
2022/08/21 17:12:54;;;;;;;4.53;2.20;;;29.60;47.60;;;;;;10467663;28;20057;-77
2022/08/21 17:17:56;;;;;;;4.70;2.20;;;29.60;50.50;;;;;;10456368;28;20072;-77
2022/08/21 17:23:00;;;;;;;5.03;2.40;;;29.70;51.90;;;;;;10490042;28;20056;-77
2022/08/21 17:28:03;;;;;;;4.43;2.35;;;29.70;52.60;;;;;;10493334;28;20402;-80
2022/08/21 17:33:06;;;;;;;3.67;2.08;;;29.60;50.90;;;;;;10497558;28;20521;-77
2022/08/21 17:38:11;;;;;;;4.47;2.10;;;29.70;53.30;;;;;;10484253;28;20055;-79
2022/08/21 17:43:14;;;;;;;5.10;2.35;;;29.60;54.80;;;;;;10494129;28;20052;-75
2022/08/21 17:48:16;;;;;;;7.38;2.20;;;29.30;57.40;;;;;;10491331;28;20451;-74
2022/08/21 17:53:20;;;;;;;5.03;2.20;;;28.80;57.50;;;;;;10505035;28;20056;-76
2022/08/21 17:58:23;;;;;;;4.88;2.25;;;28.40;58.30;;;;;;10499990;28;20072;-75
2022/08/21 18:03:25;;;;;;;4.47;2.17;;;27.90;61.00;;;;;;10505016;28;20378;-76
2022/08/21 18:08:30;;;;;;;5.68;2.28;;;27.50;62.10;;;;;;10514508;28;20052;-76
2022/08/21 18:13:36;;;;;;;7.47;2.75;;;27.30;63.10;;;;;;10504575;28;20135;-76
2022/08/21 18:18:44;;;;;;;6.38;2.30;;;27.10;63.80;;;;;;10505027;28;20052;-74
2022/08/21 18:23:48;;;;;;;5.00;2.30;;;27.00;64.90;;;;;;10507065;28;20048;-75
2022/08/21 18:28:50;;;;;;;5.53;2.25;;;26.80;63.80;;;;;;10495386;28;20045;-75
2022/08/21 18:33:52;;;;;;;4.78;2.47;;;26.60;62.10;;;;;;10496090;28;20052;-75
2022/08/21 18:38:56;;;;;;;5.05;2.33;;;26.40;62.60;;;;;;10507241;28;20053;-77
2022/08/21 18:43:58;;;;;;;6.85;2.83;;;26.20;62.80;;;;;;10488261;28;20048;-75
2022/08/21 18:49:00;;;;;;;4.18;2.30;;;26.00;63.30;;;;;;10496816;28;20056;-74
2022/08/21 18:54:06;;;;;;;5.13;2.50;;;25.90;63.00;;;;;;10484873;28;20045;-75
2022/08/21 18:59:09;;;;;;;4.35;2.38;;;25.60;63.70;;;;;;10501776;28;20072;-75
2022/08/21 19:04:12;;;;;;;6.95;3.20;;;25.50;65.30;;;;;;10499266;28;20080;-75
2022/08/21 19:09:15;;;;;;;8.65;2.88;;;25.30;67.90;;;;;;10497234;28;20059;-75
2022/08/21 19:14:18;;;;;;;9.30;4.82;;;25.00;69.80;;;;;;10503088;28;20044;-77
2022/08/21 19:19:20;;;;;;;6.43;2.60;;;24.80;71.80;;;;;;10479884;28;20080;-77
2022/08/21 19:24:23;;;;;;;7.50;2.30;;;24.70;71.90;;;;;;10497357;28;20052;-77
2022/08/21 19:29:25;;;;;;;8.57;2.67;;;24.50;72.80;;;;;;10498751;28;20134;-79
2022/08/21 19:34:29;;;;;;;6.32;2.55;;;24.00;73.80;;;;;;10500921;28;20044;-75
2022/08/21 19:39:37;;;;;;;7.60;2.65;;;23.70;73.90;;;;;;10504732;28;20063;-76
2022/08/21 19:44:40;;;;;;;4.85;2.40;;;23.50;70.70;;;;;;10505063;28;20048;-77
2022/08/21 19:49:46;;;;;;;5.88;2.70;;;23.30;74.60;;;;;;10512959;28;20051;-75
2022/08/21 19:54:49;;;;;;;8.73;2.50;;;23.20;75.90;;;;;;10497412;28;20045;-76
2022/08/21 19:59:51;;;;;;;6.97;3.03;;;23.10;75.70;;;;;;10500686;28;20387;-75
2022/08/21 20:04:53;;;;;;;6.70;2.75;;;23.10;75.60;;;;;;10505444;28;20482;-78
2022/08/21 20:09:57;;;;;;;7.25;2.80;;;23.10;76.70;;;;;;10509758;28;20055;-78
2022/08/21 20:15:01;;;;;;;5.88;2.85;;;23.10;76.00;;;;;;10521865;28;20049;-76
2022/08/21 20:20:06;;;;;;;6.95;3.30;;;23.00;76.80;;;;;;10497940;28;20048;-77
2022/08/21 20:25:10;;;;;;;7.10;3.38;;;23.00;77.50;;;;;;10497164;28;20047;-77
2022/08/21 20:30:13;;;;;;;6.82;2.80;;;22.70;77.50;;;;;;10507377;28;20056;-76
2022/08/21 20:35:15;;;;;;;9.05;2.88;;;22.50;79.40;;;;;;10500561;28;20055;-78
2022/08/21 20:40:19;;;;;;;5.60;2.70;;;22.10;81.10;;;;;;10508435;28;20056;-76
2022/08/21 20:45:26;;;;;;;6.90;3.00;;;21.90;83.20;;;;;;10492221;28;20064;-77
2022/08/21 20:50:32;;;;;;;6.22;2.90;;;21.90;83.80;;;;;;10495489;28;20509;-77
2022/08/21 20:55:42;;;;;;;7.25;2.92;;;21.90;84.90;;;;;;10471818;28;20053;-77
2022/08/21 21:00:44;;;;;;;6.03;2.92;;;21.90;85.80;;;;;;10496240;28;20478;-77
2022/08/21 21:05:52;;;;;;;10.30;6.20;;;21.80;85.20;;;;;;10495419;28;20052;-78
2022/08/21 21:11:00;;;;;;;10.45;3.00;;;21.80;86.00;;;;;;10496615;28;20052;-76
2022/08/21 21:16:06;;;;;;;7.22;2.63;;;21.60;87.20;;;;;;10495528;28;20051;-76
2022/08/21 21:21:15;;;;;;;6.80;2.72;;;21.30;87.70;;;;;;10498764;28;20052;-76
2022/08/21 21:26:22;;;;;;;;;;;21.20;88.60;;;;;;10499645;28;20059;-77
2022/08/21 21:31:26;;;;;;;8.05;2.72;;;21.20;89.50;;;;;;10500377;28;19920;-78
2022/08/21 21:36:34;;;;;;;5.10;2.80;;;21.20;90.10;;;;;;10515100;28;20048;-76
2022/08/21 21:41:46;;;;;;;5.27;2.80;;;21.10;90.30;;;;;;10510812;28;20059;-75
2022/08/21 21:47:01;;;;;;;5.60;2.60;;;20.70;90.80;;;;;;10498025;28;20337;-76
2022/08/21 21:52:19;;;;;;;8.85;2.95;;;20.20;91.20;;;;;;10529293;28;20056;-75
2022/08/21 21:57:42;;;;;;;9.40;2.90;;;20.20;92.20;;;;;;10505606;28;20048;-76
2022/08/21 22:02:54;;;;;;;5.70;2.83;;;20.10;91.90;;;;;;10498143;28;20045;-79
2022/08/21 22:08:02;;;;;;;6.18;2.65;;;20.00;92.30;;;;;;10497797;28;20055;-79
2022/08/21 22:13:16;;;;;;;5.53;2.60;;;19.90;91.30;;;;;;10499730;28;20052;-78
2022/08/21 22:18:24;;;;;;;7.20;2.60;;;20.00;92.60;;;;;;10507972;28;20048;-77
2022/08/21 22:23:31;;;;;;;8.30;2.90;;;20.00;92.70;;;;;;10516474;28;20052;-77
2022/08/21 22:28:40;;;;;;;5.97;2.58;;;20.00;93.10;;;;;;10483083;28;20060;-76
2022/08/21 22:33:59;;;;;;;7.15;3.47;;;20.00;92.70;;;;;;10521134;28;20053;-76
2022/08/21 22:39:07;;;;;;;5.72;3.42;;;19.70;93.10;;;;;;10500601;28;20410;-77
2022/08/21 22:44:22;;;;;;;8.90;3.42;;;19.40;93.50;;;;;;10497705;28;20067;-75
2022/08/21 22:49:32;;;;;;;6.22;2.97;;;19.40;94.00;;;;;;10504366;28;20048;-78
2022/08/21 22:54:39;;;;;;;7.80;2.95;;;19.40;94.30;;;;;;10507037;28;20051;-78
2022/08/21 22:59:56;;;;;;;7.15;3.30;;;19.40;94.60;;;;;;10519522;28;20045;-77
2022/08/21 23:05:02;;;;;;;5.65;2.88;;;19.40;94.80;;;;;;10510397;28;20064;-75
2022/08/21 23:10:15;;;;;;;6.35;3.28;;;19.40;95.00;;;;;;10505540;28;20441;-78
2022/08/21 23:15:19;;;;;;;5.57;3.20;;;19.30;95.00;;;;;;10522064;28;20068;-78
2022/08/21 23:20:27;;;;;;;7.10;2.88;;;19.10;95.30;;;;;;10505315;28;20045;-75
2022/08/21 23:25:50;;;;;;;6.85;3.08;;;19.10;96.00;;;;;;10504796;28;20551;-78
2022/08/21 23:31:04;;;;;;;5.97;2.92;;;19.00;95.90;;;;;;10527409;28;20048;-77
2022/08/21 23:41:56;;;;;;;7.75;3.30;;;18.60;96.70;;;;;;10433549;28;20055;-77
2022/08/21 23:47:13;;;;;;;7.65;2.75;;;18.70;96.90;;;;;;10493864;28;20090;-76
2022/08/21 23:52:26;;;;;;;11.57;3.25;;;18.70;97.20;;;;;;10502252;28;20045;-74
2022/08/21 23:57:51;;;;;;;6.13;3.08;;;18.80;97.50;;;;;;10505299;28;20044;-79
